Time;durP1;ratioP1;P1;durP2;ratioP2;P2;SDS_P1;SDS_P2;PMS_P1;PMS_P2;Temp;Humidity;BMP_temperature;BMP_pressure;BME280_temperature;BME280_humidity;BME280_pressure;Samples;Min_cycle;Max_cycle;Signal;HPM_P1;HPM_P2
2022/07/18 00:01:08;;;;;;;;;;;;;;;21.00;56.21;96929.56;6149306;28;20259;-66
2022/07/18 00:04:11;;;;;;;;;;;;;;;21.00;56.22;96928.72;6147511;29;19926;-66
2022/07/18 00:07:15;;;;;;;;;;;;;;;21.02;56.29;96932.94;6149093;28;19974;-65
2022/07/18 00:10:19;;;;;;;;;;;;;;;21.08;55.91;96940.28;6148890;29;19930;-65
2022/07/18 00:13:23;;;;;;;;;;;;;;;21.12;55.44;96938.16;6149395;28;19926;-65
2022/07/18 00:16:29;;;;;;;;;;;;;;;21.13;55.76;96947.00;6149090;28;19933;-65
2022/07/18 00:19:31;;;;;;;;;;;;;;;21.12;55.67;96948.84;6148796;29;19934;-66
2022/07/18 00:22:34;;;;;;;;;;;;;;;21.14;55.59;96946.00;6148643;28;19926;-65
2022/07/18 00:25:38;;;;;;;;;;;;;;;21.18;55.63;96948.19;6152892;28;20312;-65
2022/07/18 00:28:43;;;;;;;;;;;;;;;21.24;55.60;96944.03;6153583;28;19927;-66
2022/07/18 00:31:47;;;;;;;;;;;;;;;21.32;55.16;96949.38;6153470;28;20413;-67
2022/07/18 00:34:51;;;;;;;;;;;;;;;21.40;55.34;96952.13;6153408;29;20020;-68
2022/07/18 00:37:52;;;;;;;;;;;;;;;21.47;54.86;96955.78;6152988;28;19927;-66
2022/07/18 00:40:53;;;;;;;;;;;;;;;21.51;55.21;96959.81;6153199;29;19933;-65
2022/07/18 00:43:54;;;;;;;;;;;;;;;21.57;54.79;96962.81;6152504;28;19927;-65
2022/07/18 00:46:58;;;;;;;;;;;;;;;21.61;54.55;96959.66;6152943;28;19927;-66
2022/07/18 00:50:00;;;;;;;;;;;;;;;21.67;54.45;96956.31;6153174;28;19926;-67
2022/07/18 00:53:05;;;;;;;;;;;;;;;21.71;54.71;96962.16;6153099;28;19927;-69
2022/07/18 00:56:09;;;;;;;;;;;;;;;21.78;54.50;96965.84;6152906;28;19981;-65
2022/07/18 00:59:20;;;;;;;;;;;;;;;21.86;54.25;96967.69;6152769;28;20404;-66
2022/07/18 01:02:27;;;;;;;;;;;;;;;21.93;53.96;96969.53;6152919;28;20009;-66
2022/07/18 01:05:30;;;;;;;;;;;;;;;21.98;54.00;96966.34;6152596;28;19926;-66
2022/07/18 01:08:35;;;;;;;;;;;;;;;22.00;53.96;96969.69;6152707;28;19952;-68
2022/07/18 01:11:39;;;;;;;;;;;;;;;22.04;53.88;96972.88;6152280;28;19926;-66
2022/07/18 01:14:43;;;;;;;;;;;;;;;22.06;53.80;96986.94;6152335;28;20316;-67
2022/07/18 01:17:46;;;;;;;;;;;;;;;22.09;53.65;96984.75;6152392;28;19930;-66
2022/07/18 01:20:52;;;;;;;;;;;;;;;22.12;53.93;96988.94;6152221;28;20065;-65
2022/07/18 01:23:55;;;;;;;;;;;;;;;22.15;53.69;96988.59;6151916;28;19934;-66
2022/07/18 01:26:56;;;;;;;;;;;;;;;22.16;53.92;96987.59;6152010;29;19930;-65
2022/07/18 01:29:57;;;;;;;;;;;;;;;22.17;53.58;96991.97;6151731;28;19933;-65
2022/07/18 01:33:00;;;;;;;;;;;;;;;22.15;53.99;96993.97;6151534;28;20025;-65
2022/07/18 01:36:02;;;;;;;;;;;;;;;22.13;53.93;96995.97;6150650;28;19930;-65
2022/07/18 01:39:03;;;;;;;;;;;;;;;22.10;53.99;96997.13;6152244;28;19922;-65
2022/07/18 01:42:07;;;;;;;;;;;;;;;22.08;53.86;97001.00;6151857;28;19930;-66
2022/07/18 01:45:14;;;;;;;;;;;;;;;22.07;53.86;97002.00;6151550;28;19926;-66
2022/07/18 01:48:22;;;;;;;;;;;;;;;22.09;53.93;97008.88;6151852;28;19927;-65
2022/07/18 01:51:23;;;;;;;;;;;;;;;22.16;53.63;97001.81;6151186;28;19926;-66
2022/07/18 01:54:30;;;;;;;;;;;;;;;22.22;53.83;97008.38;6151492;28;19926;-66
2022/07/18 01:57:31;;;;;;;;;;;;;;;22.31;53.13;97010.06;6151420;28;20333;-66
2022/07/18 02:00:33;;;;;;;;;;;;;;;22.39;53.31;97010.06;6151239;28;19954;-66
2022/07/18 02:03:36;;;;;;;;;;;;;;;22.50;52.82;97008.84;6151128;28;19933;-66
2022/07/18 02:06:39;;;;;;;;;;;;;;;22.59;52.73;97013.19;6150970;28;19926;-66
2022/07/18 02:09:40;;;;;;;;;;;;;;;22.74;52.45;97016.00;6151347;28;19932;-66
2022/07/18 02:12:42;;;;;;;;;;;;;;;22.92;52.04;97023.81;6150981;28;20009;-66
2022/07/18 02:16:03;;;;;;;;;;;;;;;23.21;51.64;97023.25;6149637;29;20032;-65
2022/07/18 02:19:06;;;;;;;;;;;;;;;23.48;51.04;97023.75;6150835;28;20316;-65
2022/07/18 02:22:07;;;;;;;;;;;;;;;23.62;50.65;97020.31;6150994;28;19927;-66
2022/07/18 02:25:13;;;;;;;;;;;;;;;23.73;50.50;97027.16;6150303;28;19926;-66
2022/07/18 02:28:16;;;;;;;;;;;;;;;23.78;50.25;97027.47;6150749;28;20300;-66
2022/07/18 02:31:19;;;;;;;;;;;;;;;23.84;50.16;97028.59;6150030;28;19923;-66
2022/07/18 02:34:20;;;;;;;;;;;;;;;23.88;50.21;97027.22;6150727;28;20069;-66
2022/07/18 02:37:24;;;;;;;;;;;;;;;23.95;49.88;97031.72;6150472;28;19922;-66
2022/07/18 02:40:25;;;;;;;;;;;;;;;24.07;50.03;97034.81;6150075;28;19977;-66
2022/07/18 02:43:31;;;;;;;;;;;;;;;24.29;49.41;97021.50;6149899;28;20017;-65
2022/07/18 02:46:32;;;;;;;;;;;;;;;24.44;49.22;97035.84;6149715;28;20385;-66
2022/07/18 02:49:33;;;;;;;;;;;;;;;24.54;49.03;97039.13;6150181;28;20301;-65
2022/07/18 02:52:39;;;;;;;;;;;;;;;24.70;48.65;97040.81;6149807;29;19965;-66
2022/07/18 02:55:40;;;;;;;;;;;;;;;24.80;47.91;97029.78;6149815;28;19927;-65
2022/07/18 02:58:43;;;;;;;;;;;;;;;24.83;48.24;97030.25;6149478;28;20016;-66
2022/07/18 03:01:45;;;;;;;;;;;;;;;24.93;48.00;97029.94;6149567;28;19926;-66
2022/07/18 03:04:48;;;;;;;;;;;;;;;25.02;47.78;97036.91;6149693;28;19934;-66
2022/07/18 03:07:51;;;;;;;;;;;;;;;25.18;47.15;97035.06;6149921;28;20320;-66
2022/07/18 03:10:57;;;;;;;;;;;;;;;25.24;47.11;97039.72;6150067;28;19922;-66
2022/07/18 03:14:01;;;;;;;;;;;;;;;25.28;46.96;97038.31;6149718;28;19926;-66
2022/07/18 03:17:02;;;;;;;;;;;;;;;25.22;46.97;97045.31;6149004;28;19930;-66
2022/07/18 03:20:03;;;;;;;;;;;;;;;25.18;47.31;97043.16;6149496;29;19927;-66
2022/07/18 03:23:05;;;;;;;;;;;;;;;25.10;47.09;97047.56;6149341;28;19926;-67
2022/07/18 03:26:09;;;;;;;;;;;;;;;25.03;47.09;97043.97;6149721;28;19981;-65
2022/07/18 03:29:15;;;;;;;;;;;;;;;25.02;47.04;97042.28;6149369;28;20025;-67
2022/07/18 03:32:18;;;;;;;;;;;;;;;25.05;46.99;97044.63;6149385;28;19927;-67
2022/07/18 03:35:22;;;;;;;;;;;;;;;25.05;47.22;97041.06;6149195;29;19922;-66
2022/07/18 03:38:25;;;;;;;;;;;;;;;25.03;47.25;97045.84;6149450;29;19926;-66
2022/07/18 03:41:29;;;;;;;;;;;;;;;25.08;47.32;97055.03;6149182;28;20380;-66
2022/07/18 03:44:30;;;;;;;;;;;;;;;25.17;46.65;97049.56;6148865;29;20419;-66
2022/07/18 03:47:36;;;;;;;;;;;;;;;25.23;46.51;97046.13;6149131;29;19926;-66
2022/07/18 03:50:42;;;;;;;;;;;;;;;25.36;46.41;97051.66;6149236;28;19927;-65
2022/07/18 03:53:48;;;;;;;;;;;;;;;25.56;45.84;97051.06;6149260;28;20021;-66
2022/07/18 03:56:51;;;;;;;;;;;;;;;25.73;45.80;97053.38;6149031;28;19926;-66
2022/07/18 03:59:52;;;;;;;;;;;;;;;25.93;45.27;97053.59;6151643;28;19932;-65
2022/07/18 04:02:56;;;;;;;;;;;;;;;26.20;44.77;97059.25;6153901;28;19933;-65
2022/07/18 04:05:57;;;;;;;;;;;;;;;26.46;44.21;97053.22;6153786;29;19926;-65
2022/07/18 04:08:58;;;;;;;;;;;;;;;26.68;43.39;97054.06;6153779;29;20080;-66
2022/07/18 04:12:01;;;;;;;;;;;;;;;26.78;43.35;97065.34;6153738;28;19986;-66
2022/07/18 04:15:06;;;;;;;;;;;;;;;26.79;43.25;97058.91;6168357;28;20328;-65
2022/07/18 04:18:07;;;;;;;;;;;;;;;26.87;43.22;97056.06;6153608;29;20028;-66
2022/07/18 04:21:08;;;;;;;;;;;;;;;27.06;42.65;97053.66;6153196;28;19934;-65
2022/07/18 04:24:09;;;;;;;;;;;;;;;27.03;42.89;97068.41;6153258;29;19926;-66
2022/07/18 04:27:11;;;;;;;;;;;;;;;27.20;42.82;97060.00;6153173;29;19926;-66
2022/07/18 04:30:16;;;;;;;;;;;;;;;27.42;41.68;97066.97;6152928;28;19922;-65
2022/07/18 04:33:17;;;;;;;;;;;;;;;27.74;41.68;97064.59;6152933;29;19933;-65
2022/07/18 04:36:25;;;;;;;;;;;;;;;27.97;41.45;97067.81;6153236;28;20320;-65
2022/07/18 04:39:29;;;;;;;;;;;;;;;28.11;41.25;97060.56;6153007;28;19926;-66
2022/07/18 04:42:34;;;;;;;;;;;;;;;28.23;41.11;97071.63;6153014;29;20348;-66
2022/07/18 04:45:38;;;;;;;;;;;;;;;28.31;40.62;97068.72;6152812;28;19926;-65
2022/07/18 04:48:41;;;;;;;;;;;;;;;28.24;40.36;97072.44;6152755;29;19934;-64
2022/07/18 04:51:44;;;;;;;;;;;;;;;28.13;40.29;97071.19;6152883;28;19941;-66
2022/07/18 04:54:48;;;;;;;;;;;;;;;28.25;40.31;97068.69;6152595;28;19933;-65
2022/07/18 04:57:49;;;;;;;;;;;;;;;28.58;39.64;97066.03;6152462;29;19929;-65
2022/07/18 05:00:51;;;;;;;;;;;;;;;28.98;39.12;97069.53;6152483;29;19933;-65
2022/07/18 05:03:53;;;;;;;;;;;;;;;29.36;38.65;97066.13;6152457;28;20400;-64
2022/07/18 05:06:58;;;;;;;;;;;;;;;29.56;38.45;97070.66;6152756;28;19931;-65
2022/07/18 05:10:07;;;;;;;;;;;;;;;29.52;37.97;97067.53;6152326;28;19922;-67
2022/07/18 05:13:13;;;;;;;;;;;;;;;29.35;37.98;97069.88;6152392;29;20351;-65
2022/07/18 05:16:14;;;;;;;;;;;;;;;29.60;37.11;97069.16;6152280;29;19922;-65
2022/07/18 05:19:16;;;;;;;;;;;;;;;30.30;37.08;97072.78;6152156;29;20304;-65
2022/07/18 05:22:20;;;;;;;;;;;;;;;31.37;35.42;97078.13;6151971;29;19930;-66
2022/07/18 05:25:23;;;;;;;;;;;;;;;32.97;33.33;97076.66;6151818;29;19933;-65
2022/07/18 05:28:27;;;;;;;;;;;;;;;34.66;31.32;97087.50;6151631;28;20389;-65
2022/07/18 05:31:28;;;;;;;;;;;;;;;35.18;30.56;97085.31;6151613;28;20419;-65
2022/07/18 05:34:31;;;;;;;;;;;;;;;35.34;30.24;97088.28;6151679;28;19930;-66
2022/07/18 05:37:35;;;;;;;;;;;;;;;35.37;30.38;97085.84;6151281;28;20068;-66
2022/07/18 05:40:36;;;;;;;;;;;;;;;35.60;30.57;97087.56;6151315;28;20089;-65
2022/07/18 05:43:39;;;;;;;;;;;;;;;37.03;26.57;97086.31;6151152;29;20033;-65
2022/07/18 05:46:41;;;;;;;;;;;;;;;40.17;24.94;97087.16;6151341;29;19937;-64
2022/07/18 05:49:42;;;;;;;;;;;;;;;41.93;22.89;97080.59;6151568;29;19933;-65
2022/07/18 05:52:45;;;;;;;;;;;;;;;42.94;22.78;97082.13;6151317;28;19926;-66
2022/07/18 05:55:49;;;;;;;;;;;;;;;44.00;21.46;97085.97;6151550;28;20424;-66
2022/07/18 05:58:52;;;;;;;;;;;;;;;44.58;21.61;97084.38;6151472;28;19926;-65
2022/07/18 06:01:55;;;;;;;;;;;;;;;44.04;22.26;97084.19;6151382;29;20016;-66
2022/07/18 06:04:59;;;;;;;;;;;;;;;43.66;19.73;97078.88;6150161;28;20025;-66
2022/07/18 06:08:00;;;;;;;;;;;;;;;43.64;19.49;97074.78;6151534;28;20304;-65
2022/07/18 06:11:06;;;;;;;;;;;;;;;44.21;17.56;97079.94;6151131;28;19922;-65
2022/07/18 06:14:12;;;;;;;;;;;;;;;45.80;17.97;97083.09;6151066;28;19930;-66
2022/07/18 06:17:16;;;;;;;;;;;;;;;47.23;16.59;97081.38;6151112;28;20304;-66
2022/07/18 06:20:18;;;;;;;;;;;;;;;48.22;16.71;97079.44;6165612;28;20016;-65
2022/07/18 06:23:21;;;;;;;;;;;;;;;47.88;13.16;97081.28;6149890;28;19933;-65
2022/07/18 06:26:27;;;;;;;;;;;;;;;48.44;15.89;97078.25;6150754;28;19926;-65
2022/07/18 06:29:32;;;;;;;;;;;;;;;49.95;14.10;97084.41;6150635;29;20396;-66
2022/07/18 06:32:33;;;;;;;;;;;;;;;51.54;12.85;97069.75;6150431;29;19927;-65
2022/07/18 06:35:34;;;;;;;;;;;;;;;52.68;12.73;97076.38;6150419;29;20320;-65
2022/07/18 06:38:35;;;;;;;;;;;;;;;53.35;12.35;97076.06;6149463;28;20009;-65
2022/07/18 06:41:43;;;;;;;;;;;;;;;53.53;10.51;97060.28;6148811;29;19937;-65
2022/07/18 06:44:46;;;;;;;;;;;;;;;53.22;10.71;97072.59;6149858;29;20389;-65
2022/07/18 06:47:50;;;;;;;;;;;;;;;52.99;10.22;97052.06;6149501;28;19930;-65
2022/07/18 06:50:51;;;;;;;;;;;;;;;52.11;10.55;97055.47;6149939;29;19932;-65
2022/07/18 06:53:55;;;;;;;;;;;;;;;52.95;11.06;97060.44;6150078;28;19948;-65
2022/07/18 06:56:59;;;;;;;;;;;;;;;55.36;8.35;97057.06;6149784;28;19927;-64
2022/07/18 07:00:04;;;;;;;;;;;;;;;57.56;9.07;97061.34;6150296;28;19926;-65
2022/07/18 07:03:08;;;;;;;;;;;;;;;58.30;8.92;97061.63;6149868;29;20451;-64
2022/07/18 07:06:09;;;;;;;;;;;;;;;59.45;6.68;97066.69;6149872;29;19949;-65
2022/07/18 07:09:14;;;;;;;;;;;;;;;60.47;7.41;97065.28;6149838;29;20429;-65
2022/07/18 07:12:18;;;;;;;;;;;;;;;59.83;5.10;97063.94;6149797;28;19927;-65
2022/07/18 07:15:24;;;;;;;;;;;;;;;58.30;7.66;97058.00;6149651;29;19927;-65
2022/07/18 07:18:28;;;;;;;;;;;;;;;57.87;7.94;97046.75;6149582;28;19927;-65
2022/07/18 07:21:29;;;;;;;;;;;;;;;57.89;7.28;97047.16;6149131;29;19974;-64
2022/07/18 07:24:33;;;;;;;;;;;;;;;58.22;7.56;97046.69;6148977;28;19926;-66
2022/07/18 07:27:36;;;;;;;;;;;;;;;59.14;6.73;97054.34;6149477;29;19957;-66
2022/07/18 07:30:37;;;;;;;;;;;;;;;59.36;6.81;97050.13;6149413;28;19933;-65
2022/07/18 07:33:39;;;;;;;;;;;;;;;59.25;6.91;97049.38;6148742;28;19926;-65
2022/07/18 07:36:43;;;;;;;;;;;;;;;58.29;6.32;97039.38;6149344;29;19930;-67
2022/07/18 07:39:49;;;;;;;;;;;;;;;57.40;7.40;97041.09;6149065;28;19927;-66
2022/07/18 07:43:04;;;;;;;;;;;;;;;57.12;6.79;97019.25;6149043;28;19926;-65
2022/07/18 07:46:11;;;;;;;;;;;;;;;57.66;7.02;97025.75;6149116;28;19933;-66
2022/07/18 07:49:14;;;;;;;;;;;;;;;59.35;6.11;97030.72;6149302;28;19926;-66
2022/07/18 07:52:20;;;;;;;;;;;;;;;60.42;4.73;97041.78;6149422;28;19927;-66
2022/07/18 07:55:22;;;;;;;;;;;;;;;60.27;5.04;97042.38;6149218;28;20426;-65
2022/07/18 07:58:25;;;;;;;;;;;;;;;60.39;5.45;97039.78;6148989;28;19926;-65
2022/07/18 08:01:31;;;;;;;;;;;;;;;61.05;5.04;97044.19;6149064;29;19926;-65
2022/07/18 08:04:36;;;;;;;;;;;;;;;61.60;3.64;97044.13;6149689;28;19926;-64
2022/07/18 08:07:39;;;;;;;;;;;;;;;61.54;4.88;97046.66;6151931;28;20397;-65
2022/07/18 08:10:42;;;;;;;;;;;;;;;61.12;5.04;97031.06;6150719;28;20389;-64
2022/07/18 08:13:45;;;;;;;;;;;;;;;59.48;5.30;97024.06;6148842;29;19927;-65
2022/07/18 08:16:48;;;;;;;;;;;;;;;57.52;6.58;97003.13;6148800;28;19927;-65
2022/07/18 08:19:52;;;;;;;;;;;;;;;56.34;7.23;97000.88;6148749;29;20133;-65
2022/07/18 08:22:54;;;;;;;;;;;;;;;56.95;6.58;96998.22;6148432;28;19930;-65
2022/07/18 08:25:58;;;;;;;;;;;;;;;57.99;6.05;97009.50;6148739;29;19930;-66
2022/07/18 08:29:00;;;;;;;;;;;;;;;57.30;5.97;97003.09;6148457;29;19927;-66
2022/07/18 08:32:01;;;;;;;;;;;;;;;55.94;6.79;96980.09;6148837;28;19993;-66
2022/07/18 08:35:04;;;;;;;;;;;;;;;55.19;6.58;96975.94;6148481;29;20392;-65
2022/07/18 08:38:08;;;;;;;;;;;;;;;53.71;6.96;96970.59;6148248;29;19930;-65
2022/07/18 08:41:13;;;;;;;;;;;;;;;53.62;6.59;96970.00;6148523;29;19927;-65
2022/07/18 08:44:17;;;;;;;;;;;;;;;54.41;6.16;96968.28;6162894;28;19926;-65
2022/07/18 08:47:21;;;;;;;;;;;;;;;55.74;6.59;96970.28;6152728;29;19926;-66
2022/07/18 08:50:26;;;;;;;;;;;;;;;56.89;5.60;96971.56;6152588;29;19923;-65
2022/07/18 08:53:30;;;;;;;;;;;;;;;57.87;5.39;96975.97;6152692;29;20384;-66
2022/07/18 08:56:34;;;;;;;;;;;;;;;59.25;4.81;96976.41;6152776;29;19926;-66
2022/07/18 08:59:39;;;;;;;;;;;;;;;60.53;4.81;96979.09;6152215;29;20025;-65
2022/07/18 09:02:43;;;;;;;;;;;;;;;61.07;4.12;96989.69;6153047;29;20381;-65
2022/07/18 09:05:46;;;;;;;;;;;;;;;58.54;4.76;96966.38;6152494;29;19934;-65
2022/07/18 09:08:59;;;;;;;;;;;;;;;54.81;6.21;96956.22;6152331;29;19926;-65
2022/07/18 09:12:03;;;;;;;;;;;;;;;51.92;7.31;96944.78;6152426;28;19933;-66
2022/07/18 09:15:07;;;;;;;;;;;;;;;50.66;8.24;96935.34;6151877;28;19936;-65
2022/07/18 09:18:11;;;;;;;;;;;;;;;51.91;7.74;96937.56;6152077;28;19977;-64
2022/07/18 09:21:18;;;;;;;;;;;;;;;53.67;7.11;96938.75;6151986;28;20307;-64
2022/07/18 09:24:22;;;;;;;;;;;;;;;54.84;6.32;96949.00;6151801;28;19926;-65
2022/07/18 09:27:27;;;;;;;;;;;;;;;55.17;6.61;96943.25;6152030;28;20384;-65
2022/07/18 09:30:35;;;;;;;;;;;;;;;55.58;6.49;96934.72;6151671;28;19922;-67
2022/07/18 09:33:51;;;;;;;;;;;;;;;56.19;6.42;96931.38;6151990;29;19926;-65
2022/07/18 09:36:56;;;;;;;;;;;;;;;56.65;6.06;96939.22;6152080;28;19926;-65
2022/07/18 09:40:28;;;;;;;;;;;;;;;56.59;5.65;96929.50;6151558;28;19927;-65
2022/07/18 09:43:36;;;;;;;;;;;;;;;56.17;5.99;96933.78;6150461;28;20381;-65
2022/07/18 09:46:58;;;;;;;;;;;;;;;55.97;6.09;96931.34;6151266;28;20326;-66
2022/07/18 09:50:02;;;;;;;;;;;;;;;56.25;6.06;96927.00;6150526;29;19926;-66
2022/07/18 09:53:10;;;;;;;;;;;;;;;56.27;6.30;96935.88;6151436;29;19922;-66
2022/07/18 09:56:22;;;;;;;;;;;;;;;55.96;6.05;96914.78;6150714;28;20388;-65
2022/07/18 09:59:25;;;;;;;;;;;;;;;55.03;6.20;96925.44;6149901;29;19926;-65
2022/07/18 10:02:28;;;;;;;;;;;;;;;53.63;6.82;96918.19;6165842;28;20460;-65
2022/07/18 10:05:33;;;;;;;;;;;;;;;51.47;7.87;96901.31;6149513;29;20364;-65
2022/07/18 10:08:37;;;;;;;;;;;;;;;48.41;9.28;96906.69;6151015;29;19926;-66
2022/07/18 10:11:42;;;;;;;;;;;;;;;45.63;11.04;96902.41;6150683;29;19927;-64
2022/07/18 10:14:45;;;;;;;;;;;;;;;43.43;12.43;96905.38;6150828;29;20401;-65
2022/07/18 10:17:49;;;;;;;;;;;;;;;42.21;13.47;96892.75;6165806;28;19930;-65
2022/07/18 10:21:03;;;;;;;;;;;;;;;41.50;13.64;96898.28;6150831;29;19927;-65
2022/07/18 10:24:06;;;;;;;;;;;;;;;40.83;14.09;96891.94;6150742;29;19926;-65
2022/07/18 10:27:12;;;;;;;;;;;;;;;40.13;14.71;96890.38;6150742;29;19926;-65
2022/07/18 10:30:16;;;;;;;;;;;;;;;39.48;15.00;96900.75;6150398;29;19926;-65
2022/07/18 10:33:38;;;;;;;;;;;;;;;39.05;15.48;96895.72;6150464;29;19926;-65
2022/07/18 10:36:52;;;;;;;;;;;;;;;38.67;16.16;96897.22;6150335;29;19926;-65
2022/07/18 10:39:55;;;;;;;;;;;;;;;38.14;16.14;96893.97;6150337;29;19927;-65
2022/07/18 10:43:17;;;;;;;;;;;;;;;37.56;17.44;96887.88;6150307;29;19926;-66
2022/07/18 10:46:20;;;;;;;;;;;;;;;36.90;17.91;96891.19;6150243;29;20308;-65
2022/07/18 10:49:44;;;;;;;;;;;;;;;36.28;18.60;96885.31;6149168;29;19926;-65
2022/07/18 10:52:50;;;;;;;;;;;;;;;35.63;19.13;96884.50;6149899;29;19926;-66
2022/07/18 10:55:53;;;;;;;;;;;;;;;35.18;19.65;96891.13;6149865;29;19927;-66
2022/07/18 10:58:57;;;;;;;;;;;;;;;35.13;19.89;96891.06;6149593;29;19926;-66
2022/07/18 11:02:01;;;;;;;;;;;;;;;35.26;19.95;96889.84;6149440;29;19927;-66
2022/07/18 11:05:26;;;;;;;;;;;;;;;35.22;20.17;96889.53;6148332;29;19926;-65
2022/07/18 11:08:31;;;;;;;;;;;;;;;35.09;20.65;96884.47;6149760;28;20033;-64
2022/07/18 11:11:34;;;;;;;;;;;;;;;35.55;20.47;96887.69;6149648;29;19926;-66
2022/07/18 11:14:56;;;;;;;;;;;;;;;37.05;19.47;96880.28;6149535;29;19926;-65
2022/07/18 11:18:03;;;;;;;;;;;;;;;39.25;17.46;96885.72;6149295;29;19927;-66
2022/07/18 11:21:22;;;;;;;;;;;;;;;40.22;16.61;96881.50;6149549;29;19927;-64
2022/07/18 11:24:26;;;;;;;;;;;;;;;40.53;16.26;96884.78;6149220;29;19926;-65
2022/07/18 11:27:30;;;;;;;;;;;;;;;40.91;15.75;96883.00;6149146;29;19927;-65
2022/07/18 11:30:33;;;;;;;;;;;;;;;40.27;16.25;96874.00;6149177;29;19927;-65
2022/07/18 11:33:39;;;;;;;;;;;;;;;40.48;15.89;96879.31;6148950;29;19933;-67
2022/07/18 11:36:45;;;;;;;;;;;;;;;41.14;15.37;96880.53;6149185;29;19930;-65
2022/07/18 11:39:47;;;;;;;;;;;;;;;41.79;15.08;96879.91;6148979;29;19926;-66
2022/07/18 11:42:50;;;;;;;;;;;;;;;41.79;15.02;96871.63;6149119;29;19927;-65
2022/07/18 11:46:03;;;;;;;;;;;;;;;41.29;15.18;96872.03;6148460;29;19927;-65
2022/07/18 11:49:07;;;;;;;;;;;;;;;41.52;15.04;96877.81;6148936;29;20419;-65
2022/07/18 11:52:11;;;;;;;;;;;;;;;41.85;15.10;96879.50;6148711;29;20076;-66
2022/07/18 11:55:14;;;;;;;;;;;;;;;42.27;14.50;96874.97;6148736;29;20417;-66
2022/07/18 11:58:17;;;;;;;;;;;;;;;42.18;14.87;96874.00;6163396;28;19927;-66
2022/07/18 12:01:21;;;;;;;;;;;;;;;41.52;14.89;96875.06;6148874;29;19927;-66
2022/07/18 12:04:25;;;;;;;;;;;;;;;40.77;15.46;96871.03;6148477;29;19926;-65
2022/07/18 12:07:29;;;;;;;;;;;;;;;40.22;15.90;96874.06;6148752;29;19981;-65
2022/07/18 12:10:32;;;;;;;;;;;;;;;39.67;16.21;96865.94;6163491;28;19930;-66
2022/07/18 12:13:43;;;;;;;;;;;;;;;38.87;16.85;96865.25;6148617;29;19926;-65
2022/07/18 12:16:48;;;;;;;;;;;;;;;37.64;17.62;96857.13;6148437;29;19926;-65
2022/07/18 12:19:51;;;;;;;;;;;;;;;36.85;18.39;96862.63;6148974;28;19926;-65
2022/07/18 12:23:11;;;;;;;;;;;;;;;36.37;18.87;96861.81;6152899;29;20346;-65
2022/07/18 12:26:31;;;;;;;;;;;;;;;36.51;18.82;96861.34;6155861;28;20381;-66
2022/07/18 12:29:53;;;;;;;;;;;;;;;36.48;18.54;96862.72;6156298;28;20344;-66
2022/07/18 12:32:58;;;;;;;;;;;;;;;36.35;18.79;96857.69;6153144;29;19923;-66
2022/07/18 12:36:01;;;;;;;;;;;;;;;36.23;18.70;96852.41;6152718;29;19927;-65
2022/07/18 12:39:05;;;;;;;;;;;;;;;36.14;18.65;96857.56;6151374;29;19922;-66
2022/07/18 12:42:07;;;;;;;;;;;;;;;36.54;18.69;96856.19;6152530;29;19933;-65
2022/07/18 12:45:10;;;;;;;;;;;;;;;37.06;18.36;96865.50;6152091;29;19931;-66
2022/07/18 12:48:13;;;;;;;;;;;;;;;37.40;18.05;96863.13;6152704;28;20316;-65
2022/07/18 12:51:15;;;;;;;;;;;;;;;37.35;17.95;96856.81;6152400;28;19926;-65
2022/07/18 12:54:17;;;;;;;;;;;;;;;37.21;18.47;96851.00;6152025;28;19926;-66
2022/07/18 12:57:21;;;;;;;;;;;;;;;36.84;18.16;96851.94;6152377;28;20013;-64
2022/07/18 13:00:24;;;;;;;;;;;;;;;36.37;18.77;96861.00;6152853;28;19926;-65
2022/07/18 13:03:31;;;;;;;;;;;;;;;36.16;18.75;96855.41;6152270;28;19927;-66
2022/07/18 13:06:35;;;;;;;;;;;;;;;35.90;18.88;96853.53;6152312;28;19927;-66
2022/07/18 13:09:36;;;;;;;;;;;;;;;35.58;19.08;96848.06;6152412;28;19928;-66
2022/07/18 13:12:41;;;;;;;;;;;;;;;35.34;19.50;96855.75;6152126;28;19926;-65
2022/07/18 13:15:45;;;;;;;;;;;;;;;35.03;19.90;96850.72;6151952;28;19926;-66
2022/07/18 13:18:47;;;;;;;;;;;;;;;34.66;20.11;96857.94;6151946;28;19930;-66
2022/07/18 13:21:57;;;;;;;;;;;;;;;34.27;20.72;96856.00;6151861;28;20033;-65
2022/07/18 13:25:01;;;;;;;;;;;;;;;33.88;20.87;96849.66;6151769;28;19973;-65
2022/07/18 13:28:03;;;;;;;;;;;;;;;33.64;21.03;96851.72;6151785;28;19933;-66
2022/07/18 13:31:08;;;;;;;;;;;;;;;33.43;20.97;96851.34;6151619;28;19930;-65
2022/07/18 13:34:09;;;;;;;;;;;;;;;33.46;21.28;96850.00;6151956;29;19926;-66
2022/07/18 13:37:13;;;;;;;;;;;;;;;33.69;20.78;96849.09;6151670;28;19937;-66
2022/07/18 13:40:15;;;;;;;;;;;;;;;33.95;20.53;96848.41;6151471;28;19926;-65
2022/07/18 13:43:18;;;;;;;;;;;;;;;34.15;20.42;96858.03;6151495;28;19927;-65
2022/07/18 13:46:19;;;;;;;;;;;;;;;34.01;20.74;96853.94;6150299;28;20069;-66
2022/07/18 13:49:25;;;;;;;;;;;;;;;33.76;20.90;96849.72;6151194;28;19926;-67
2022/07/18 13:52:28;;;;;;;;;;;;;;;33.67;21.20;96848.50;6151432;28;20053;-65
2022/07/18 13:55:30;;;;;;;;;;;;;;;33.69;21.12;96846.34;6151317;28;20002;-65
2022/07/18 13:58:31;;;;;;;;;;;;;;;33.35;21.53;96848.16;6151483;28;20026;-65
2022/07/18 14:01:34;;;;;;;;;;;;;;;33.04;22.13;96847.63;6150923;28;19926;-65
2022/07/18 14:04:38;;;;;;;;;;;;;;;32.80;22.38;96846.81;6150671;29;19985;-65
2022/07/18 14:07:42;;;;;;;;;;;;;;;32.47;22.38;96842.88;6149652;29;20061;-65
2022/07/18 14:10:49;;;;;;;;;;;;;;;32.30;22.44;96836.47;6150734;28;20404;-66
2022/07/18 14:13:51;;;;;;;;;;;;;;;32.32;22.67;96835.16;6150382;28;19933;-65
2022/07/18 14:16:54;;;;;;;;;;;;;;;32.67;22.00;96838.91;6150529;28;19934;-65
2022/07/18 14:19:55;;;;;;;;;;;;;;;32.97;22.14;96834.06;6150596;29;19926;-65
2022/07/18 14:22:56;;;;;;;;;;;;;;;33.20;21.95;96840.53;6150515;28;19933;-67
2022/07/18 14:26:01;;;;;;;;;;;;;;;33.21;22.22;96826.66;6150609;28;19926;-65
2022/07/18 14:29:04;;;;;;;;;;;;;;;33.05;22.46;96828.28;6150283;29;19926;-65
2022/07/18 14:32:06;;;;;;;;;;;;;;;33.04;22.36;96823.91;6150094;29;19927;-66
2022/07/18 14:35:08;;;;;;;;;;;;;;;33.21;22.37;96820.41;6164852;28;19930;-65
2022/07/18 14:38:11;;;;;;;;;;;;;;;33.35;22.23;96824.47;6150471;28;19930;-65
2022/07/18 14:41:16;;;;;;;;;;;;;;;33.23;21.98;96829.97;6150259;28;19931;-66
2022/07/18 14:44:19;;;;;;;;;;;;;;;33.01;22.22;96827.13;6149800;28;19930;-65
2022/07/18 14:47:25;;;;;;;;;;;;;;;32.88;22.64;96821.91;6150270;28;20047;-66
2022/07/18 14:50:27;;;;;;;;;;;;;;;32.60;23.07;96826.25;6149764;28;19934;-65
2022/07/18 14:53:30;;;;;;;;;;;;;;;32.24;23.53;96826.53;6150093;28;20091;-65
2022/07/18 14:56:34;;;;;;;;;;;;;;;31.85;23.87;96824.28;6149860;28;19926;-66
2022/07/18 14:59:35;;;;;;;;;;;;;;;31.59;24.10;96825.53;6149347;28;19933;-66
2022/07/18 15:02:37;;;;;;;;;;;;;;;31.29;24.07;96829.13;6149651;28;19948;-65
2022/07/18 15:05:38;;;;;;;;;;;;;;;31.05;24.26;96825.47;6149092;28;19926;-66
2022/07/18 15:08:44;;;;;;;;;;;;;;;30.82;24.73;96830.81;6149484;28;19926;-66
2022/07/18 15:11:45;;;;;;;;;;;;;;;30.60;24.96;96833.16;6149343;28;19923;-65
2022/07/18 15:14:49;;;;;;;;;;;;;;;30.41;25.19;96835.88;6149253;28;19926;-65
2022/07/18 15:17:52;;;;;;;;;;;;;;;30.28;25.14;96835.19;6149312;28;19922;-65
2022/07/18 15:20:53;;;;;;;;;;;;;;;30.21;25.22;96837.97;6149584;28;19933;-65
2022/07/18 15:23:56;;;;;;;;;;;;;;;30.08;25.43;96833.47;6149534;28;20303;-65
2022/07/18 15:27:00;;;;;;;;;;;;;;;29.87;25.59;96842.88;6149006;28;19926;-66
2022/07/18 15:30:04;;;;;;;;;;;;;;;29.68;25.79;96835.75;6148858;28;20392;-66
2022/07/18 15:33:07;;;;;;;;;;;;;;;29.49;26.43;96832.91;6149199;28;19942;-66
2022/07/18 15:36:15;;;;;;;;;;;;;;;29.35;26.70;96839.50;6148944;29;19926;-65
2022/07/18 15:39:16;;;;;;;;;;;;;;;29.22;26.83;96831.47;6147761;29;19926;-65
2022/07/18 15:42:19;;;;;;;;;;;;;;;29.04;27.17;96838.44;6148868;28;20452;-66
2022/07/18 15:45:20;;;;;;;;;;;;;;;28.87;27.39;96839.97;6148369;28;20389;-66
2022/07/18 15:48:21;;;;;;;;;;;;;;;28.64;27.80;96835.06;6148820;28;19933;-66
2022/07/18 15:51:25;;;;;;;;;;;;;;;28.43;27.64;96839.72;6148593;28;19949;-65
2022/07/18 15:54:29;;;;;;;;;;;;;;;28.26;28.35;96837.69;6147878;28;19934;-65
2022/07/18 15:57:30;;;;;;;;;;;;;;;28.05;28.34;96834.16;6148343;28;19926;-65
2022/07/18 16:00:34;;;;;;;;;;;;;;;27.87;28.66;96839.41;6148574;28;19926;-65